Time;durP1;ratioP1;P1;durP2;ratioP2;P2;SDS_P1;SDS_P2;PMS_P1;PMS_P2;Temp;Humidity;BMP_temperature;BMP_pressure;BME280_temperature;BME280_humidity;BME280_pressure;Samples;Min_cycle;Max_cycle;Signal;HPM_P1;HPM_P2
2024/01/27 00:00:11;;;;;;;1.00;0.60;;;;;;;7.58;45.74;101744.97;6152077;23;20382;-90
2024/01/27 00:02:36;;;;;;;0.90;0.60;;;;;;;7.57;45.77;101746.78;6151375;23;20358;-90
2024/01/27 00:05:04;;;;;;;0.80;0.40;;;;;;;7.44;46.21;101752.22;6152208;23;20362;-91
2024/01/27 00:07:30;;;;;;;1.42;0.70;;;;;;;7.34;46.63;101747.78;6150543;23;20385;-90
2024/01/27 00:09:56;;;;;;;0.77;0.40;;;;;;;7.45;46.53;101750.41;6150132;23;20762;-90
2024/01/27 00:12:22;;;;;;;0.83;0.47;;;;;;;7.54;46.34;101762.03;6149663;23;20366;-90
2024/01/27 00:14:47;;;;;;;3.80;1.30;;;;;;;7.34;46.52;101750.44;6174276;23;20362;-89
2024/01/27 00:17:13;;;;;;;1.90;0.70;;;;;;;7.54;46.48;101751.47;6149384;23;20355;-90
2024/01/27 00:19:38;;;;;;;1.33;0.50;;;;;;;7.50;46.38;101744.75;6149949;23;20385;-90
2024/01/27 00:22:04;;;;;;;1.70;0.50;;;;;;;7.56;46.29;101762.72;6149701;23;20363;-90
2024/01/27 00:24:30;;;;;;;1.10;0.60;;;;;;;7.36;46.60;101753.78;6153125;23;20378;-90
2024/01/27 00:26:56;;;;;;;1.58;0.70;;;;;;;7.42;46.39;101753.31;6150991;23;20402;-90
2024/01/27 00:29:22;;;;;;;1.27;0.43;;;;;;;7.60;46.35;101765.00;6151529;23;20366;-89
2024/01/27 00:31:49;;;;;;;2.72;1.00;;;;;;;7.51;46.29;101764.88;6150804;23;20369;-90
2024/01/27 00:34:18;;;;;;;1.25;0.60;;;;;;;7.32;46.56;101766.38;6175917;23;20830;-90
2024/01/27 00:36:48;;;;;;;1.63;1.00;;;;;;;7.39;46.93;101772.84;6181018;23;20459;-90
2024/01/27 00:39:15;;;;;;;0.80;0.70;;;;;;;7.36;46.75;101765.16;6182367;23;20356;-92
2024/01/27 00:41:43;;;;;;;1.35;0.55;;;;;;;7.50;46.46;101763.22;6190689;23;20356;-90
2024/01/27 00:44:09;;;;;;;2.72;0.70;;;;;;;7.59;46.16;101771.22;6203068;23;20364;-90
2024/01/27 00:46:38;;;;;;;2.90;0.73;;;;;;;7.61;46.32;101766.66;6209504;23;20456;-93
2024/01/27 00:49:06;;;;;;;4.63;1.13;;;;;;;7.62;45.92;101755.16;6184956;23;20875;-87
2024/01/27 00:51:32;;;;;;;2.33;0.70;;;;;;;7.62;46.20;101757.78;6181756;23;20363;-93
2024/01/27 00:54:00;;;;;;;1.02;0.75;;;;;;;7.61;46.27;101760.56;6184075;23;20361;-93
2024/01/27 00:56:26;;;;;;;1.37;0.80;;;;;;;7.58;46.15;101763.44;6184012;23;20359;-95
2024/01/27 00:58:52;;;;;;;2.10;0.80;;;;;;;7.67;45.89;101760.06;6183480;23;20376;-93
2024/01/27 01:01:17;;;;;;;0.47;0.40;;;;;;;7.70;46.18;101757.16;6186119;23;20363;-93
2024/01/27 01:03:46;;;;;;;2.75;0.63;;;;;;;7.66;46.16;101753.09;6205183;23;20387;-93
2024/01/27 01:06:12;;;;;;;2.33;0.60;;;;;;;7.61;46.20;101742.91;6208761;23;20438;-92
2024/01/27 01:08:37;;;;;;;0.82;0.40;;;;;;;7.73;46.23;101758.72;6187910;23;20911;-92
2024/01/27 01:11:04;;;;;;;1.88;0.57;;;;;;;7.70;45.83;101749.25;6183488;23;20357;-93
2024/01/27 01:13:30;;;;;;;1.65;0.75;;;;;;;7.65;46.39;101752.28;6182972;23;20361;-91
2024/01/27 01:15:55;;;;;;;2.33;0.95;;;;;;;7.60;46.31;101764.19;6182691;23;20415;-93
2024/01/27 01:18:21;;;;;;;0.60;0.30;;;;;;;7.62;46.22;101728.78;6182474;23;20638;-92
2024/01/27 01:20:47;;;;;;;0.68;0.40;;;;;;;7.59;46.51;101726.38;6182828;23;20357;-91
2024/01/27 01:23:12;;;;;;;1.08;0.40;;;;;;;7.52;46.85;101721.72;6184073;23;20704;-93
2024/01/27 01:25:38;;;;;;;1.52;0.63;;;;;;;7.62;46.57;101730.59;6184292;23;20353;-94
2024/01/27 01:28:04;;;;;;;0.60;0.33;;;;;;;7.59;46.52;101718.47;6183823;23;20372;-93
2024/01/27 01:30:30;;;;;;;1.35;0.80;;;;;;;7.57;46.22;101715.09;6185513;23;20828;-93
2024/01/27 01:32:55;;;;;;;1.37;0.70;;;;;;;7.68;46.63;101730.06;6185433;23;20363;-92
2024/01/27 01:35:21;;;;;;;1.30;0.40;;;;;;;7.88;46.17;101728.41;6172664;23;20373;-92
2024/01/27 01:37:48;;;;;;;1.37;0.67;;;;;;;7.94;46.12;101730.56;6154807;23;20362;-92
2024/01/27 01:40:15;;;;;;;0.35;0.28;;;;;;;7.91;46.00;101724.69;6154605;23;20366;-94
2024/01/27 01:42:41;;;;;;;0.47;0.20;;;;;;;7.98;46.02;101725.88;6154389;23;20368;-92
2024/01/27 01:45:11;;;;;;;1.88;0.90;;;;;;;7.96;46.12;101726.00;6156428;23;20418;-93
2024/01/27 01:47:36;;;;;;;0.88;0.40;;;;;;;7.94;46.23;101714.72;6154011;23;20378;-93
2024/01/27 01:50:03;;;;;;;1.33;0.47;;;;;;;7.92;46.16;101714.00;6155367;23;20377;-93
2024/01/27 01:52:28;;;;;;;0.70;0.32;;;;;;;7.85;46.33;101704.94;6155332;23;20371;-92
2024/01/27 01:54:54;;;;;;;0.30;0.30;;;;;;;7.94;46.28;101698.88;6155872;23;20425;-90
2024/01/27 01:57:20;;;;;;;0.52;0.30;;;;;;;8.01;46.40;101686.84;6160930;23;20359;-92
2024/01/27 01:59:45;;;;;;;0.60;0.30;;;;;;;8.13;46.11;101684.13;6163557;23;20365;-90
2024/01/27 02:02:12;;;;;;;1.13;0.57;;;;;;;8.16;45.89;101679.41;6168735;23;20899;-93
2024/01/27 02:04:42;;;;;;;1.80;0.85;;;;;;;8.08;45.87;101697.69;6157294;23;20362;-94
2024/01/27 02:07:08;;;;;;;1.13;0.70;;;;;;;8.18;45.81;101695.13;6157595;23;20855;-93
2024/01/27 02:09:34;;;;;;;0.63;0.40;;;;;;;8.15;45.86;101690.94;6131207;23;20370;-92
2024/01/27 02:12:00;;;;;;;1.58;1.00;;;;;;;8.20;45.71;101691.38;6153416;23;20362;-89
2024/01/27 02:14:27;;;;;;;1.58;0.50;;;;;;;8.24;45.91;101698.06;6153273;23;20401;-90
2024/01/27 02:16:53;;;;;;;0.98;0.43;;;;;;;8.23;46.06;101685.84;6154012;23;20358;-90
2024/01/27 02:19:19;;;;;;;0.77;0.50;;;;;;;8.27;46.08;101673.22;6153191;23;20365;-91
2024/01/27 02:21:45;;;;;;;1.17;0.50;;;;;;;8.37;45.99;101665.31;6155696;23;20366;-91
2024/01/27 02:24:10;;;;;;;2.17;0.60;;;;;;;8.48;45.72;101652.09;6157205;23;20363;-91
2024/01/27 02:26:36;;;;;;;2.00;0.90;;;;;;;8.54;45.35;101648.91;6153630;23;20437;-90
2024/01/27 02:29:02;;;;;;;0.70;0.47;;;;;;;8.53;45.23;101626.06;6153272;23;20370;-91
2024/01/27 02:31:28;;;;;;;1.83;0.70;;;;;;;8.46;45.91;101635.50;6152235;23;20358;-89
2024/01/27 02:33:54;;;;;;;1.02;0.52;;;;;;;8.58;45.85;101626.50;6152445;23;20358;-89
2024/01/27 02:36:20;;;;;;;0.50;0.30;;;;;;;8.57;45.50;101627.50;6203612;23;20464;-89
2024/01/27 02:38:45;;;;;;;1.30;1.10;;;;;;;8.57;45.69;101616.91;6212106;23;20357;-88
2024/01/27 02:41:11;;;;;;;1.00;0.60;;;;;;;8.61;45.58;101620.97;6187719;23;20888;-90
2024/01/27 02:43:37;;;;;;;0.80;0.40;;;;;;;8.69;45.55;101628.19;6187812;23;20358;-89
2024/01/27 02:46:06;;;;;;;1.02;0.43;;;;;;;8.76;45.15;101618.75;6198227;23;20362;-89
2024/01/27 02:48:32;;;;;;;0.97;0.50;;;;;;;8.83;45.15;101620.88;6212175;23;20453;-89
2024/01/27 02:50:57;;;;;;;1.30;0.60;;;;;;;8.84;45.16;101614.59;6211558;23;20359;-91
2024/01/27 02:53:23;;;;;;;1.00;0.57;;;;;;;8.91;44.96;101615.72;6188287;23;20358;-89
2024/01/27 02:55:48;;;;;;;2.15;0.90;;;;;;;8.87;44.86;101601.94;6187871;23;20358;-91
2024/01/27 02:58:14;;;;;;;0.97;0.40;;;;;;;8.92;45.16;101596.25;6214257;23;20438;-88
2024/01/27 03:00:46;;;;;;;1.00;0.40;;;;;;;9.01;45.14;101600.72;6187993;23;20366;-89
2024/01/27 03:03:11;;;;;;;1.05;0.50;;;;;;;9.06;45.03;101600.31;6189135;23;20695;-89
2024/01/27 03:05:37;;;;;;;0.73;0.47;;;;;;;8.97;45.31;101591.41;6199078;23;20354;-90
2024/01/27 03:08:03;;;;;;;1.52;0.52;;;;;;;8.98;44.86;101585.13;6209190;22;20378;-88
2024/01/27 03:10:36;;;;;;;0.77;0.40;;;;;;;8.94;44.88;101583.72;6213739;22;20371;-90
2024/01/27 03:13:02;;;;;;;0.75;0.50;;;;;;;9.01;44.66;101574.28;6190703;23;20859;-90
2024/01/27 03:15:28;;;;;;;0.45;0.30;;;;;;;9.03;44.65;101576.78;6213818;23;20522;-91
2024/01/27 03:17:53;;;;;;;1.20;0.50;;;;;;;9.06;44.92;101574.69;6187458;23;20366;-90
2024/01/27 03:20:19;;;;;;;1.63;0.70;;;;;;;9.11;44.81;101567.19;6187203;23;20365;-89
2024/01/27 03:22:45;;;;;;;0.40;0.30;;;;;;;9.17;44.64;101565.78;6214372;23;20352;-90
2024/01/27 03:25:10;;;;;;;0.87;0.67;;;;;;;9.18;44.79;101557.72;6189112;23;20775;-90
2024/01/27 03:27:36;;;;;;;0.43;0.27;;;;;;;9.21;44.84;101566.34;6189806;23;20378;-89
2024/01/27 03:30:03;;;;;;;0.98;0.50;;;;;;;9.21;44.83;101553.94;6190997;23;20355;-92
2024/01/27 03:32:31;;;;;;;1.02;0.60;;;;;;;9.27;45.04;101547.25;6187668;23;20395;-90
2024/01/27 03:34:59;;;;;;;0.75;0.35;;;;;;;9.29;44.90;101545.28;6187169;23;20375;-89
2024/01/27 03:37:25;;;;;;;0.60;0.38;;;;;;;9.30;45.13;101554.91;6214465;23;20351;-92
2024/01/27 03:39:52;;;;;;;0.30;0.30;;;;;;;9.36;44.90;101551.69;6187968;23;20421;-90
2024/01/27 03:42:17;;;;;;;0.87;0.40;;;;;;;9.38;44.59;101553.25;6186800;23;20355;-91
2024/01/27 03:44:43;;;;;;;0.83;0.40;;;;;;;9.42;45.04;101558.22;6187295;23;20362;-90
2024/01/27 03:47:09;;;;;;;0.85;0.38;;;;;;;9.36;45.69;101555.19;6187088;23;20747;-91
2024/01/27 03:49:34;;;;;;;1.77;0.60;;;;;;;9.41;45.47;101546.00;6187164;23;20699;-90
2024/01/27 03:52:03;;;;;;;1.10;0.60;;;;;;;9.38;46.11;101553.25;6186831;23;20477;-89
2024/01/27 03:54:29;;;;;;;0.93;0.40;;;;;;;9.34;46.20;101537.78;6187358;23;20362;-89
2024/01/27 03:56:55;;;;;;;0.90;0.50;;;;;;;9.37;46.80;101535.69;6214169;23;20359;-88
2024/01/27 03:59:20;;;;;;;1.40;0.50;;;;;;;9.22;47.43;101529.16;6188232;23;20417;-89
2024/01/27 04:01:47;;;;;;;1.93;0.53;;;;;;;9.23;47.44;101525.53;6188621;23;20676;-87
2024/01/27 04:04:13;;;;;;;2.63;0.85;;;;;;;9.27;48.26;101541.97;6189008;23;20363;-89
2024/01/27 04:06:42;;;;;;;1.40;0.60;;;;;;;9.14;48.58;101534.31;6190883;23;20375;-89
2024/01/27 04:09:11;;;;;;;1.50;0.40;;;;;;;9.22;48.92;101531.81;6191457;23;20355;-89
2024/01/27 04:11:37;;;;;;;0.28;0.25;;;;;;;9.11;49.59;101524.00;6190589;23;20846;-91
2024/01/27 04:14:05;;;;;;;0.77;0.47;;;;;;;9.24;49.05;101529.84;6194286;23;20433;-90
2024/01/27 04:16:30;;;;;;;0.52;0.30;;;;;;;9.28;49.76;101536.53;6195611;23;20355;-89
2024/01/27 04:18:56;;;;;;;1.03;0.57;;;;;;;9.18;49.62;101518.03;6195979;23;20361;-91
2024/01/27 04:21:22;;;;;;;0.60;0.30;;;;;;;9.32;49.66;101527.31;6199424;23;20362;-92
2024/01/27 04:23:48;;;;;;;0.77;0.33;;;;;;;9.38;49.70;101526.78;6202158;23;20422;-91
2024/01/27 04:26:14;;;;;;;0.93;0.40;;;;;;;9.35;49.87;101520.94;6201523;23;20436;-89
2024/01/27 04:28:39;;;;;;;0.70;0.33;;;;;;;9.34;50.07;101522.72;6201243;23;20462;-91
2024/01/27 04:31:06;;;;;;;0.67;0.40;;;;;;;9.39;49.56;101519.66;6209473;23;20394;-89
2024/01/27 04:33:32;;;;;;;1.08;0.40;;;;;;;9.45;49.79;101524.38;6213537;23;20363;-89
2024/01/27 04:35:58;;;;;;;0.60;0.30;;;;;;;9.42;50.01;101537.06;6213893;23;20382;-90
2024/01/27 04:38:27;;;;;;;1.27;0.57;;;;;;;9.45;50.15;101542.06;6239780;22;20393;-90
2024/01/27 04:40:53;;;;;;;1.20;0.60;;;;;;;9.38;50.89;101544.44;6212107;23;20474;-91
2024/01/27 04:43:20;;;;;;;1.20;0.50;;;;;;;9.54;50.34;101557.09;6210063;23;20347;-91
2024/01/27 04:45:47;;;;;;;1.45;0.52;;;;;;;9.51;50.34;101542.34;6209396;23;20366;-91
2024/01/27 04:48:12;;;;;;;0.93;0.50;;;;;;;9.47;50.69;101553.34;6206413;23;20370;-93
2024/01/27 04:50:38;;;;;;;2.08;0.70;;;;;;;9.44;51.03;101543.91;6214691;22;20347;-92
2024/01/27 04:53:04;;;;;;;1.25;0.40;;;;;;;9.41;51.21;101551.28;6214236;23;20363;-90
2024/01/27 04:55:30;;;;;;;0.98;0.45;;;;;;;9.53;50.77;101547.50;6202400;23;20355;-90
2024/01/27 04:57:55;;;;;;;0.80;0.40;;;;;;;9.67;50.88;101556.78;6201871;23;20393;-90
2024/01/27 05:00:21;;;;;;;1.40;0.70;;;;;;;9.62;51.14;101557.22;6223888;23;20351;-93
2024/01/27 05:02:47;;;;;;;1.10;0.40;;;;;;;9.52;51.58;101556.41;6208223;23;20351;-91
2024/01/27 05:05:13;;;;;;;1.70;0.80;;;;;;;9.72;51.56;101558.06;6237416;22;20358;-90
2024/01/27 05:07:39;;;;;;;0.60;0.30;;;;;;;9.73;51.16;101574.75;6236755;23;20374;-91
2024/01/27 05:10:05;;;;;;;1.30;0.60;;;;;;;9.77;51.13;101569.03;6212486;22;20363;-89
2024/01/27 05:12:31;;;;;;;1.33;0.60;;;;;;;9.75;51.02;101575.44;6211657;23;20386;-88
2024/01/27 05:14:57;;;;;;;1.55;0.60;;;;;;;9.74;51.03;101581.72;6198669;23;20363;-91
2024/01/27 05:17:22;;;;;;;0.93;0.40;;;;;;;9.49;51.39;101573.41;6223498;23;20434;-88
2024/01/27 05:19:50;;;;;;;0.90;0.40;;;;;;;9.73;51.12;101572.94;6201315;23;20366;-90
2024/01/27 05:22:15;;;;;;;0.65;0.30;;;;;;;9.73;50.82;101583.53;6204625;23;20351;-93
2024/01/27 05:24:54;;;;;;;1.88;0.50;;;;;;;9.57;50.71;101584.13;6206513;23;20370;-92
2024/01/27 05:27:26;;;;;;;2.10;1.25;;;;;;;9.71;50.70;101595.25;6208848;23;20393;-91
2024/01/27 05:29:52;;;;;;;2.67;1.60;;;;;;;9.57;50.79;101594.69;6207252;23;20710;-90
2024/01/27 05:32:18;;;;;;;0.52;0.30;;;;;;;9.70;50.27;101606.81;6203322;23;20362;-92
2024/01/27 05:34:45;;;;;;;0.70;0.60;;;;;;;9.50;50.54;101608.66;6230928;23;20366;-96
2024/01/27 05:37:12;;;;;;;1.00;0.40;;;;;;;9.61;50.16;101607.66;6201442;23;20374;-92
2024/01/27 05:39:38;;;;;;;0.83;0.30;;;;;;;9.54;50.07;101607.38;6229613;23;20351;-94
2024/01/27 05:42:04;;;;;;;0.63;0.30;;;;;;;9.64;50.09;101610.03;6200706;23;20408;-91
2024/01/27 05:44:30;;;;;;;0.40;0.30;;;;;;;9.69;50.03;101624.50;6226216;23;20418;-91
2024/01/27 05:46:56;;;;;;;1.10;0.50;;;;;;;9.41;50.41;101618.25;6199323;23;20371;-94
2024/01/27 05:49:21;;;;;;;0.90;0.50;;;;;;;9.71;49.72;101616.44;6195238;23;20426;-93
2024/01/27 05:51:48;;;;;;;0.70;0.37;;;;;;;9.73;49.65;101622.41;6224128;23;20378;-93
2024/01/27 05:54:16;;;;;;;0.52;0.40;;;;;;;9.62;49.81;101617.28;6192183;23;20363;-91
2024/01/27 05:56:42;;;;;;;0.52;0.30;;;;;;;9.46;50.06;101604.63;6219524;23;20358;-91
2024/01/27 05:59:08;;;;;;;1.00;0.38;;;;;;;9.52;49.79;101619.94;6216656;23;20355;-91
2024/01/27 06:01:33;;;;;;;1.88;0.60;;;;;;;9.26;50.37;101606.44;6192385;23;20355;-91
2024/01/27 06:04:02;;;;;;;1.45;0.50;;;;;;;9.24;50.54;101613.66;6195513;23;20421;-92
2024/01/27 06:06:28;;;;;;;2.43;0.90;;;;;;;9.36;50.75;101628.44;6196000;23;20842;-90
2024/01/27 06:08:53;;;;;;;1.53;0.47;;;;;;;9.46;50.35;101634.56;6215107;23;20408;-91
2024/01/27 06:11:26;;;;;;;2.05;0.90;;;;;;;9.13;50.62;101619.94;6193356;23;20362;-89
2024/01/27 06:13:52;;;;;;;1.38;0.50;;;;;;;9.05;50.59;101612.69;6192926;23;20387;-91
2024/01/27 06:16:20;;;;;;;0.93;0.50;;;;;;;8.75;51.94;101629.47;6189477;23;20367;-90
2024/01/27 06:18:48;;;;;;;0.90;0.43;;;;;;;8.87;51.72;101625.75;6168063;23;20918;-90
2024/01/27 06:21:13;;;;;;;2.67;0.85;;;;;;;8.93;50.98;101653.44;6192145;23;20359;-91
2024/01/27 06:23:39;;;;;;;1.58;0.63;;;;;;;8.78;51.68;101637.97;6192195;23;20394;-91
2024/01/27 06:26:09;;;;;;;1.50;0.50;;;;;;;8.84;51.15;101611.97;6192797;23;20389;-90
2024/01/27 06:28:38;;;;;;;0.63;0.30;;;;;;;8.80;51.49;101637.84;6193331;23;20358;-91
2024/01/27 06:31:04;;;;;;;1.20;0.90;;;;;;;8.75;51.84;101650.63;6193341;23;20835;-91
2024/01/27 06:33:30;;;;;;;1.10;0.60;;;;;;;8.68;51.84;101654.78;6195052;23;20359;-92
2024/01/27 06:35:56;;;;;;;0.50;0.28;;;;;;;8.85;51.24;101663.88;6192456;23;20381;-90
2024/01/27 06:38:22;;;;;;;0.60;0.30;;;;;;;8.86;51.04;101678.75;6218490;23;20437;-90
2024/01/27 06:40:47;;;;;;;0.60;0.30;;;;;;;8.96;50.72;101693.69;6191602;23;20738;-91
2024/01/27 06:43:13;;;;;;;1.10;0.70;;;;;;;8.78;50.88;101698.78;6190275;23;20392;-90
2024/01/27 06:45:40;;;;;;;1.38;1.00;;;;;;;8.96;50.17;101714.00;6189379;23;20355;-89
2024/01/27 06:48:06;;;;;;;0.77;0.50;;;;;;;8.91;50.09;101710.91;6190588;23;20379;-89
2024/01/27 06:53:10;;;;;;;0.60;0.30;;;;;;;9.11;50.06;101722.38;6156702;23;20456;-90
2024/01/27 06:55:35;;;;;;;1.30;0.43;;;;;;;9.26;49.83;101715.75;6130711;23;20385;-90
2024/01/27 06:58:01;;;;;;;2.05;0.65;;;;;;;9.27;49.85;101706.00;6137627;23;20366;-90
2024/01/27 07:00:27;;;;;;;1.80;0.60;;;;;;;9.28;50.05;101707.69;6175147;23;20359;-88
2024/01/27 07:02:53;;;;;;;10.80;2.10;;;;;;;9.28;49.16;101692.63;6143640;22;20527;-91
2024/01/27 07:05:28;;;;;;;1.10;0.50;;;;;;;9.28;49.45;101681.22;6223610;23;20349;-91
2024/01/27 07:07:54;;;;;;;1.00;0.40;;;;;;;9.05;49.70;101680.63;6222580;23;20419;-90
2024/01/27 07:10:20;;;;;;;1.55;0.60;;;;;;;9.05;49.49;101697.31;6222974;23;20357;-92
2024/01/27 07:12:46;;;;;;;1.38;0.57;;;;;;;9.20;48.85;101721.59;6190935;23;20420;-91
2024/01/27 07:15:11;;;;;;;0.55;0.30;;;;;;;9.25;49.06;101734.41;6167095;23;20357;-92
2024/01/27 07:17:37;;;;;;;0.52;0.32;;;;;;;9.24;48.84;101717.69;6163660;23;20444;-89
2024/01/27 07:20:03;;;;;;;0.40;0.40;;;;;;;9.35;48.29;101727.31;6188031;23;21040;-92
2024/01/27 07:22:29;;;;;;;0.70;0.32;;;;;;;9.40;48.43;101724.25;6167412;23;20432;-93
2024/01/27 07:24:56;;;;;;;0.80;0.50;;;;;;;9.17;48.06;101724.50;6167302;23;20401;-93
2024/01/27 07:27:22;;;;;;;1.40;0.52;;;;;;;9.30;48.56;101719.78;6171016;23;20442;-92
2024/01/27 07:32:23;;;;;;;5.05;1.25;;;;;;;9.18;48.32;101750.84;6206768;22;20483;-93
2024/01/27 07:34:50;;;;;;;19.40;3.60;;;;;;;9.12;48.15;101738.13;6188678;22;20422;-92
2024/01/27 07:39:57;;;;;;;6.47;1.50;;;;;;;9.33;47.52;101750.44;6183027;22;20388;-94
2024/01/27 07:47:32;;;;;;;0.90;0.50;;;;;;;9.44;47.13;101712.44;6242733;22;20389;-88
2024/01/27 07:49:57;;;;;;;0.80;0.50;;;;;;;9.53;47.44;101741.56;6220115;23;20349;-92
2024/01/27 07:52:26;;;;;;;0.95;0.43;;;;;;;9.22;47.03;101745.25;6222853;23;20357;-86
2024/01/27 07:54:54;;;;;;;1.42;0.65;;;;;;;9.22;47.29;101754.03;6217944;23;20364;-88
2024/01/27 07:57:23;;;;;;;0.82;0.40;;;;;;;9.41;47.34;101758.53;6218873;23;20440;-90
2024/01/27 07:59:48;;;;;;;1.00;0.47;;;;;;;9.52;46.88;101726.63;6221814;23;20353;-91
2024/01/27 08:02:14;;;;;;;0.50;0.30;;;;;;;9.47;46.86;101720.94;6221170;23;20700;-90
2024/01/27 08:04:40;;;;;;;1.20;0.52;;;;;;;9.37;46.19;101715.63;6221046;23;20709;-90
2024/01/27 08:07:09;;;;;;;1.20;0.47;;;;;;;9.43;46.81;101743.34;6224780;23;20377;-90
2024/01/27 08:09:37;;;;;;;0.70;0.33;;;;;;;9.23;46.59;101739.81;6226647;23;20392;-90
2024/01/27 08:17:43;;;;;;;5.72;1.50;;;;;;;9.61;46.04;101740.03;6160571;23;20390;-93
2024/01/27 08:20:13;;;;;;;1.55;0.90;;;;;;;9.79;45.91;101767.47;6212893;22;20382;-94
2024/01/27 08:25:16;;;;;;;4.40;1.10;;;;;;;9.67;45.63;101737.66;6258067;22;20435;-91
2024/01/27 08:27:44;;;;;;;0.65;0.35;;;;;;;9.45;45.77;101724.69;6227882;23;20446;-88
2024/01/27 08:30:10;;;;;;;0.55;0.30;;;;;;;9.71;45.61;101752.28;6220400;23;20440;-91
2024/01/27 08:32:37;;;;;;;0.65;0.32;;;;;;;9.91;45.33;101758.44;6223312;23;20373;-93
2024/01/27 08:35:10;;;;;;;12.83;2.70;;;;;;;10.04;45.10;101747.53;6202321;23;20455;-94
2024/01/27 08:37:38;;;;;;;1.60;0.73;;;;;;;9.69;45.40;101764.84;6161073;23;20364;-87
2024/01/27 08:40:08;;;;;;;1.08;0.50;;;;;;;9.50;45.69;101763.00;6185382;23;20907;-87
2024/01/27 08:42:38;;;;;;;1.20;0.50;;;;;;;9.55;45.85;101757.31;6186775;23;20349;-87
2024/01/27 08:45:04;;;;;;;1.60;0.65;;;;;;;9.55;45.95;101786.41;6171123;23;20806;-88
2024/01/27 08:47:29;;;;;;;0.65;0.30;;;;;;;9.25;46.56;101758.22;6172470;23;20443;-86
2024/01/27 08:49:55;;;;;;;0.60;0.30;;;;;;;9.41;46.40;101757.69;6160426;23;20831;-88
2024/01/27 08:52:21;;;;;;;0.67;0.53;;;;;;;9.55;45.61;101754.66;6158938;23;20824;-87
2024/01/27 08:54:47;;;;;;;0.40;0.30;;;;;;;9.61;45.81;101780.56;6159017;23;20357;-86
2024/01/27 08:57:12;;;;;;;0.85;0.40;;;;;;;9.54;45.75;101774.13;6157494;23;20384;-85
2024/01/27 08:59:38;;;;;;;0.60;0.40;;;;;;;9.62;45.89;101755.78;6157950;23;20368;-86
2024/01/27 09:02:12;;;;;;;0.60;0.40;;;;;;;9.67;45.93;101771.22;6166831;23;20424;-88
2024/01/27 09:04:40;;;;;;;2.40;0.70;;;;;;;9.65;45.38;101776.69;6176399;23;20364;-92
2024/01/27 09:12:16;;;;;;;0.40;0.20;;;;;;;9.97;45.38;101791.47;6166970;23;20398;-89
2024/01/27 09:14:50;;;;;;;1.23;0.40;;;;;;;9.58;45.93;101778.22;6166241;23;20436;-92
2024/01/27 09:17:19;;;;;;;0.45;0.30;;;;;;;9.57;46.14;101795.88;6158985;23;20354;-90
2024/01/27 09:19:57;;;;;;;0.50;0.20;;;;;;;9.45;46.29;101788.19;6160904;23;20394;-91
2024/01/27 09:22:28;;;;;;;0.50;0.30;;;;;;;9.58;46.12;101831.16;6157942;23;20706;-90
2024/01/27 09:38:25;;;;;;;8.15;1.75;;;;;;;9.48;46.29;101844.34;6208095;22;20402;-94
2024/01/27 09:40:57;;;;;;;1.10;0.40;;;;;;;9.36;46.60;101845.41;6204324;23;20368;-92
2024/01/27 09:45:58;;;;;;;0.38;0.30;;;;;;;9.29;46.45;101842.50;6194588;23;20413;-90
2024/01/27 09:48:27;;;;;;;0.40;0.40;;;;;;;9.10;46.75;101837.13;6216452;23;20382;-89
2024/01/27 09:50:59;;;;;;;0.43;0.22;;;;;;;9.30;46.59;101853.91;6195856;23;21077;-90
2024/01/27 09:53:35;;;;;;;1.00;0.50;;;;;;;9.48;46.12;101862.88;6218533;23;20493;-90
2024/01/27 09:56:01;;;;;;;1.58;0.70;;;;;;;9.15;46.37;101867.50;6217831;23;20370;-91
2024/01/27 09:58:36;;;;;;;0.52;0.35;;;;;;;9.18;46.63;101843.41;6231798;23;20354;-94
2024/01/27 10:01:02;;;;;;;0.50;0.23;;;;;;;9.13;46.72;101850.09;6171520;23;20382;-86
2024/01/27 10:08:39;;;;;;;0.88;0.30;;;;;;;9.22;46.31;101872.22;6222152;22;20395;-89
2024/01/27 10:11:12;;;;;;;1.50;0.50;;;;;;;8.90;47.16;101863.47;6174435;23;20371;-91
2024/01/27 10:13:53;;;;;;;0.65;0.30;;;;;;;8.90;46.94;101879.31;6199972;23;20367;-93
2024/01/27 10:19:01;;;;;;;2.70;0.70;;;;;;;8.93;46.98;101889.66;6224352;22;20401;-91
2024/01/27 10:21:27;;;;;;;2.63;0.80;;;;;;;9.14;47.10;101891.44;6234707;22;20773;-89
2024/01/27 10:23:53;;;;;;;0.43;0.35;;;;;;;8.98;46.74;101871.59;6233555;23;20428;-90
2024/01/27 10:26:22;;;;;;;0.50;0.32;;;;;;;9.06;46.65;101891.25;6224746;23;20370;-90
2024/01/27 10:28:57;;;;;;;1.50;0.40;;;;;;;9.11;46.33;101895.19;6249476;22;20381;-92
2024/01/27 10:31:31;;;;;;;1.17;0.40;;;;;;;9.47;46.21;101881.53;6232721;23;20403;-92
2024/01/27 10:34:01;;;;;;;1.80;0.60;;;;;;;9.26;46.26;101897.47;6234810;23;20357;-91
2024/01/27 10:36:39;;;;;;;2.38;0.68;;;;;;;9.28;46.00;101900.84;6205969;23;20354;-93
2024/01/27 10:39:21;;;;;;;3.30;0.85;;;;;;;9.33;45.77;101891.53;6211302;23;20384;-94
2024/01/27 10:41:50;;;;;;;2.97;0.80;;;;;;;9.43;45.33;101880.97;6230827;23;20361;-89
2024/01/27 11:54:36;;;;;;;11.85;2.58;;;;;;;9.35;44.42;102045.72;6171273;22;20390;-94
2024/01/27 11:57:15;;;;;;;;;;;;;;;;;;;;;
2024/01/27 11:59:59;;;;;;;4.65;1.15;;;;;;;9.51;44.20;102045.25;6180202;22;20402;-94
2024/01/27 12:02:35;;;;;;;1.30;0.40;;;;;;;9.30;44.34;102065.59;6188118;23;20358;-90
2024/01/27 12:05:02;;;;;;;1.20;0.70;;;;;;;9.04;44.47;102065.09;6211165;23;20382;-92
2024/01/27 12:13:06;;;;;;;14.35;2.65;;;;;;;9.13;44.14;102072.28;6220844;22;20386;-93
2024/01/27 12:24:59;;;;;;;13.50;2.70;;;;;;;9.61;43.44;102074.41;6172084;22;20451;31
2024/01/27 12:27:41;;;;;;;7.93;1.30;;;;;;;9.66;43.14;102068.75;6157210;22;20370;31
2024/01/27 13:07:50;;;;;;;2.53;0.90;;;;;;;9.17;41.74;102057.84;6216097;22;20409;-94
2024/01/27 13:16:30;;;;;;;7.35;1.85;;;;;;;9.17;40.11;102063.13;6219173;22;20373;-92
2024/01/27 13:22:11;;;;;;;8.60;1.97;;;;;;;9.52;39.92;102078.69;6151291;23;21635;-93
2024/01/27 13:24:54;;;;;;;13.40;3.03;;;;;;;9.40;40.39;102085.03;6215056;22;20372;-95
2024/01/27 13:34:05;;;;;;;2.80;1.00;;;;;;;9.14;40.60;102073.97;6209644;23;20384;-93
2024/01/27 13:36:39;;;;;;;0.60;0.43;;;;;;;9.31;40.48;102097.22;6181552;23;20380;-93
2024/01/27 13:49:52;;;;;;;3.28;0.90;;;;;;;9.17;40.74;102119.53;6209464;22;20788;-95
2024/01/27 13:52:26;;;;;;;0.23;0.23;;;;;;;8.92;41.30;102115.38;6241605;23;20441;-94
2024/01/27 13:55:06;;;;;;;2.20;0.82;;;;;;;9.13;41.62;102110.16;6238283;23;20363;-93
2024/01/27 13:57:36;;;;;;;1.58;0.68;;;;;;;8.93;41.53;102119.72;6190258;23;20369;-94
2024/01/27 14:00:42;;;;;;;1.45;0.55;;;;;;;8.63;41.95;102130.13;6239528;23;20355;-93
2024/01/27 14:03:23;;;;;;;2.42;1.00;;;;;;;9.01;42.07;102140.25;6240025;23;20367;-95
2024/01/27 14:09:31;;;;;;;5.10;1.60;;;;;;;8.97;42.13;102141.47;6233079;22;20366;-95
2024/01/27 14:12:40;;;;;;;1.17;0.50;;;;;;;9.03;41.91;102156.84;6219574;23;20453;-96
2024/01/27 14:15:10;;;;;;;0.80;0.35;;;;;;;8.69;42.41;102156.06;6235034;23;20417;-94
2024/01/27 14:18:19;;;;;;;1.27;0.55;;;;;;;8.72;42.71;102177.81;6237645;23;20347;-93
2024/01/27 14:21:01;;;;;;;1.60;0.50;;;;;;;8.78;42.83;102163.25;6238057;23;20373;-94
2024/01/27 14:23:41;;;;;;;1.75;0.80;;;;;;;9.13;41.95;102157.78;6236463;23;20355;-93
2024/01/27 14:26:47;;;;;;;2.70;0.90;;;;;;;9.06;41.89;102161.06;6209805;23;20371;-93
2024/01/27 14:29:36;;;;;;;1.88;1.05;;;;;;;8.85;42.65;102150.41;6236936;23;20892;-95
2024/01/27 14:32:19;;;;;;;1.40;1.00;;;;;;;8.88;42.68;102164.22;6238458;23;20354;-94
2024/01/27 14:37:56;;;;;;;2.20;0.80;;;;;;;8.86;43.20;102162.63;6239880;22;20398;-95
2024/01/27 14:53:30;;;;;;;2.45;1.02;;;;;;;9.15;43.33;102205.28;6232137;22;20390;-94
2024/01/27 14:55:56;;;;;;;0.20;0.20;;;;;;;9.26;43.41;102213.19;6261883;22;20399;-89
2024/01/27 15:03:36;;;;;;;0.90;0.90;;;;;;;9.14;43.28;102230.03;6244986;23;20405;-93
2024/01/27 15:06:29;;;;;;;0.47;0.38;;;;;;;8.92;44.20;102221.19;6239977;23;20366;-94
2024/01/27 15:08:55;;;;;;;0.50;0.50;;;;;;;8.96;44.15;102229.72;6231250;23;20388;-91
2024/01/27 15:11:23;;;;;;;0.70;0.50;;;;;;;8.99;44.00;102230.31;6233743;23;20407;-91
2024/01/27 15:13:49;;;;;;;0.35;0.35;;;;;;;8.97;44.46;102234.03;6223927;23;20384;-90
2024/01/27 15:16:15;;;;;;;0.30;0.30;;;;;;;8.98;44.33;102226.00;6223583;23;20353;-89
2024/01/27 15:18:43;;;;;;;1.23;0.75;;;;;;;9.12;43.64;102231.97;6220897;23;20382;-90
2024/01/27 15:21:12;;;;;;;2.03;0.70;;;;;;;9.23;43.62;102229.28;6214005;23;20752;-86
2024/01/27 15:26:19;;;;;;;1.23;0.90;;;;;;;8.95;43.59;102220.94;6232858;22;20456;-90